createdAt,value
2019-01-04T00:00:41.759Z,7.78
2019-01-04T00:03:11.179Z,7.74
2019-01-04T00:05:40.648Z,7.70
2019-01-04T00:08:10.461Z,7.66
2019-01-04T00:10:40.151Z,7.60
2019-01-04T00:13:09.768Z,7.53
2019-01-04T00:15:39.183Z,7.47
2019-01-04T00:18:09.026Z,7.43
2019-01-04T00:20:38.800Z,7.40
2019-01-04T00:23:08.798Z,7.38
2019-01-04T00:25:38.244Z,7.36
2019-01-04T00:28:14.603Z,7.34
2019-01-04T00:30:44.299Z,7.32
2019-01-04T00:33:13.914Z,7.33
2019-01-04T00:35:43.615Z,7.31
2019-01-04T00:38:13.284Z,7.26
2019-01-04T00:40:42.989Z,7.23
2019-01-04T00:43:12.854Z,7.19
2019-01-04T00:45:42.469Z,7.14
2019-01-04T00:48:12.215Z,7.11
2019-01-04T00:50:42.087Z,7.09
2019-01-04T00:53:11.861Z,7.06
2019-01-04T00:56:14.583Z,7.04
2019-01-04T00:59:01.576Z,7.01
2019-01-04T01:01:40.448Z,6.97
2019-01-04T01:04:19.159Z,6.93
2019-01-04T01:07:08.567Z,6.91
2019-01-04T01:10:11.293Z,6.89
2019-01-04T01:13:02.979Z,6.86
2019-01-04T01:16:00.760Z,6.83
2019-01-04T01:18:49.385Z,6.78
2019-01-04T01:21:27.473Z,6.76
2019-01-04T01:24:31.745Z,6.74
2019-01-04T01:27:29.814Z,6.75
2019-01-04T01:30:33.626Z,6.74
2019-01-04T01:33:23.723Z,6.72
2019-01-04T01:35:58.942Z,6.71
2019-01-04T01:38:31.470Z,6.72
2019-01-04T01:41:27.669Z,6.74
2019-01-04T01:44:16.638Z,6.76
2019-01-04T01:46:57.599Z,6.78
2019-01-04T01:49:38.645Z,6.79
2019-01-04T01:52:14.903Z,6.81
2019-01-04T01:54:44.364Z,6.80
2019-01-04T01:57:14.376Z,6.84
2019-01-04T01:59:44.223Z,6.88
2019-01-04T02:02:13.707Z,6.91
2019-01-04T02:04:43.270Z,6.96
2019-01-04T02:07:13.088Z,7.02
2019-01-04T02:09:42.263Z,7.07
2019-01-04T02:12:11.938Z,7.11
2019-01-04T02:14:41.713Z,7.16
2019-01-04T02:17:11.216Z,7.16
2019-01-04T02:19:40.821Z,7.21
2019-01-04T02:22:10.652Z,7.24
2019-01-04T02:24:39.878Z,7.27
2019-01-04T02:27:09.636Z,7.33
2019-01-04T02:29:39.044Z,7.37
2019-01-04T02:32:08.353Z,7.40
2019-01-04T02:34:37.659Z,7.45
2019-01-04T02:37:07.356Z,7.49
2019-01-04T02:39:37.180Z,7.54
2019-01-04T02:42:06.979Z,7.57
2019-01-04T02:44:36.649Z,7.60
2019-01-04T02:47:06.301Z,7.65
2019-01-04T02:49:35.987Z,7.69
2019-01-04T02:52:05.817Z,7.74
2019-01-04T02:54:35.421Z,7.77
2019-01-04T02:57:05.061Z,7.80
2019-01-04T02:59:34.783Z,7.83
2019-01-04T03:02:05.631Z,7.88
2019-01-04T03:04:35.252Z,7.94
2019-01-04T03:07:04.753Z,8.02
2019-01-04T03:09:34.301Z,8.09
2019-01-04T03:12:03.674Z,8.14
2019-01-04T03:14:33.107Z,8.21
2019-01-04T03:17:02.350Z,8.27
2019-01-04T03:19:32.018Z,8.30
2019-01-04T03:22:01.887Z,8.34
2019-01-04T03:24:31.223Z,8.38
2019-01-04T03:27:00.815Z,8.41
2019-01-04T03:29:30.255Z,8.46
2019-01-04T03:31:59.932Z,8.52
2019-01-04T03:34:29.464Z,8.56
2019-01-04T03:36:59.150Z,8.61
2019-01-04T03:39:28.458Z,8.66
2019-01-04T03:41:57.690Z,8.82
2019-01-04T03:44:27.439Z,8.99
2019-01-04T03:46:57.062Z,9.13
2019-01-04T03:49:26.786Z,9.24
2019-01-04T03:51:56.161Z,9.34
2019-01-04T03:54:25.821Z,9.41
2019-01-04T03:56:55.389Z,9.43
2019-01-04T03:59:25.204Z,9.47
2019-01-04T04:01:55.017Z,9.51
2019-01-04T04:04:24.499Z,9.57
2019-01-04T04:06:54.367Z,9.63
2019-01-04T04:09:23.956Z,9.68
2019-01-04T04:11:53.887Z,9.73
2019-01-04T04:14:23.604Z,9.77
2019-01-04T04:16:53.387Z,9.80
2019-01-04T04:19:23.069Z,9.83
2019-01-04T04:21:52.742Z,9.85
2019-01-04T04:24:22.415Z,9.88
2019-01-04T04:26:52.016Z,9.91
2019-01-04T04:29:21.913Z,9.95
2019-01-04T04:31:51.454Z,9.98
2019-01-04T04:34:21.164Z,9.99
2019-01-04T04:36:50.794Z,10.01
2019-01-04T04:39:20.445Z,10.04
2019-01-04T04:41:49.755Z,10.08
2019-01-04T04:44:19.592Z,10.12
2019-01-04T04:46:48.983Z,10.16
2019-01-04T04:49:18.915Z,10.18
2019-01-04T04:52:03.109Z,10.19
2019-01-04T04:54:32.369Z,10.21
2019-01-04T04:57:02.184Z,10.23
2019-01-04T04:59:31.775Z,10.26
2019-01-04T05:02:01.046Z,10.27
2019-01-04T05:04:31.057Z,10.28
2019-01-04T05:07:00.766Z,10.30
2019-01-04T05:09:30.514Z,10.32
2019-01-04T05:11:59.941Z,10.36
2019-01-04T05:14:29.508Z,10.39
2019-01-04T05:16:58.945Z,10.39
2019-01-04T05:19:28.342Z,10.41
2019-01-04T05:21:57.455Z,10.41
2019-01-04T05:24:26.446Z,10.43
2019-01-04T05:26:56.208Z,10.44
2019-01-04T05:29:25.977Z,10.45
2019-01-04T05:31:55.020Z,10.44
2019-01-04T05:34:25.240Z,10.44
2019-01-04T05:36:54.301Z,10.44
2019-01-04T05:39:24.266Z,10.44
2019-01-04T05:41:54.312Z,10.47
2019-01-04T05:44:23.580Z,10.48
2019-01-04T05:46:53.158Z,10.49
2019-01-04T05:49:23.934Z,10.49
2019-01-04T05:51:53.590Z,10.51
2019-01-04T05:54:23.222Z,10.53
2019-01-04T05:56:53.145Z,10.53
2019-01-04T05:59:22.749Z,10.53
2019-01-04T06:01:52.049Z,10.51
2019-01-04T06:04:21.537Z,10.48
2019-01-04T06:06:51.369Z,10.48
2019-01-04T06:09:21.148Z,10.50
2019-01-04T06:11:50.919Z,10.51
2019-01-04T06:14:20.578Z,10.52
2019-01-04T06:16:49.915Z,10.51
2019-01-04T06:19:19.722Z,10.51
2019-01-04T06:21:49.476Z,10.52
2019-01-04T06:24:19.055Z,10.53
2019-01-04T06:26:48.958Z,10.54
2019-01-04T06:29:18.748Z,10.55
2019-01-04T06:31:48.473Z,10.55
2019-01-04T06:34:18.346Z,10.53
2019-01-04T06:36:48.168Z,10.51
2019-01-04T06:39:17.382Z,10.52
2019-01-04T06:41:47.216Z,10.52
2019-01-04T06:44:16.824Z,10.52
2019-01-04T06:47:12.099Z,10.50
2019-01-04T06:49:41.775Z,10.48
2019-01-04T06:52:11.344Z,10.45
2019-01-04T06:55:18.546Z,10.45
2019-01-04T06:57:47.940Z,10.44
2019-01-04T07:00:17.739Z,10.44
2019-01-04T07:02:47.239Z,10.42
2019-01-04T07:05:16.990Z,10.42
2019-01-04T07:07:46.892Z,10.39
2019-01-04T07:10:16.594Z,10.37
2019-01-04T07:12:46.431Z,10.36
2019-01-04T07:15:16.233Z,10.36
2019-01-04T07:17:47.240Z,10.32
2019-01-04T07:20:16.694Z,10.31
2019-01-04T07:22:46.190Z,10.31
2019-01-04T07:25:16.012Z,10.32
2019-01-04T07:27:45.689Z,10.29
2019-01-04T07:30:15.131Z,10.28
2019-01-04T07:32:44.858Z,10.26
2019-01-04T07:35:14.650Z,10.24
2019-01-04T07:37:44.339Z,10.22
2019-01-04T07:40:14.234Z,10.20
2019-01-04T07:42:44.065Z,10.16
2019-01-04T07:45:13.780Z,10.13
2019-01-04T07:47:43.682Z,10.08
2019-01-04T07:50:13.660Z,10.05
2019-01-04T07:52:43.302Z,10.02
2019-01-04T07:55:13.223Z,9.96
2019-01-04T07:57:57.179Z,9.90
2019-01-04T08:00:27.223Z,9.86
2019-01-04T08:02:57.048Z,9.82
2019-01-04T08:05:26.756Z,9.81
2019-01-04T08:07:56.623Z,9.80
2019-01-04T08:10:26.754Z,9.80
2019-01-04T08:13:00.915Z,9.76
2019-01-04T08:15:30.637Z,9.74
2019-01-04T08:18:00.473Z,9.72
2019-01-04T08:20:30.417Z,9.68
2019-01-04T08:23:00.198Z,9.65
2019-01-04T08:25:30.015Z,9.64
2019-01-04T08:28:00.008Z,9.64
2019-01-04T08:30:29.793Z,9.63
2019-01-04T08:32:59.472Z,9.63
2019-01-04T08:35:29.391Z,9.65
2019-01-04T08:37:59.153Z,9.69
2019-01-04T08:40:28.729Z,9.74
2019-01-04T08:42:58.598Z,9.79
2019-01-04T08:45:28.133Z,9.85
2019-01-04T08:47:57.915Z,9.92
2019-01-04T08:50:27.539Z,9.98
2019-01-04T08:52:57.161Z,10.04
2019-01-04T08:55:27.055Z,10.11
2019-01-04T08:57:56.130Z,10.16
2019-01-04T09:00:25.916Z,10.25
2019-01-04T09:02:55.696Z,10.31
2019-01-04T09:05:25.437Z,10.41
2019-01-04T09:07:55.242Z,10.51
2019-01-04T09:10:25.016Z,10.61
2019-01-04T09:12:55.031Z,10.71
2019-01-04T09:15:24.908Z,10.82
2019-01-04T09:17:54.563Z,10.91
2019-01-04T09:20:24.388Z,11.00
2019-01-04T09:22:54.081Z,11.10
2019-01-04T09:25:23.718Z,11.19
2019-01-04T09:27:53.588Z,11.27
2019-01-04T09:30:23.186Z,11.37
2019-01-04T09:32:52.863Z,11.43
2019-01-04T09:35:22.549Z,11.51
2019-01-04T09:37:52.067Z,11.58
2019-01-04T09:40:21.809Z,11.67
2019-01-04T09:42:51.529Z,11.81
2019-01-04T09:45:21.925Z,11.89
2019-01-04T09:47:51.792Z,11.98
2019-01-04T09:50:21.486Z,12.09
2019-01-04T09:52:51.170Z,12.18
2019-01-04T09:55:20.518Z,12.27
2019-01-04T09:57:50.239Z,12.33
2019-01-04T10:00:20.044Z,12.42
2019-01-04T10:02:49.676Z,12.51
2019-01-04T10:05:19.447Z,12.59
2019-01-04T10:07:48.974Z,12.73
2019-01-04T10:10:18.467Z,12.83
2019-01-04T10:12:47.861Z,12.94
2019-01-04T10:15:17.853Z,12.99
2019-01-04T10:17:47.175Z,13.09
2019-01-04T10:20:16.626Z,13.15
2019-01-04T10:22:46.220Z,13.23
2019-01-04T10:25:15.929Z,13.32
2019-01-04T10:27:45.629Z,13.47
2019-01-04T10:30:20.728Z,13.60
2019-01-04T10:32:50.452Z,13.77
2019-01-04T10:35:20.226Z,13.83
2019-01-04T10:37:49.916Z,13.96
2019-01-04T10:40:19.542Z,14.05
2019-01-04T10:42:49.255Z,14.16
2019-01-04T10:45:19.066Z,14.30
2019-01-04T10:47:48.918Z,14.39
2019-01-04T10:50:18.480Z,14.58
2019-01-04T10:52:48.258Z,14.67
2019-01-04T10:55:18.094Z,14.73
2019-01-04T10:57:47.588Z,14.81
2019-01-04T11:00:17.327Z,15.01
2019-01-04T11:02:47.031Z,15.02
2019-01-04T11:05:16.731Z,15.11
2019-01-04T11:07:46.447Z,15.27
2019-01-04T11:10:22.523Z,15.37
2019-01-04T11:12:52.341Z,15.42
2019-01-04T11:15:22.479Z,15.54
2019-01-04T11:17:52.119Z,15.59
2019-01-04T11:20:41.359Z,15.71
2019-01-04T11:23:30.537Z,15.85
2019-01-04T11:26:11.790Z,16.02
2019-01-04T11:28:50.498Z,16.16
2019-01-04T11:31:47.372Z,16.23
2019-01-04T11:34:27.016Z,16.34
2019-01-04T11:37:20.506Z,16.48
2019-01-04T11:39:58.755Z,16.65
2019-01-04T11:43:01.455Z,16.81
2019-01-04T11:45:33.909Z,16.91
2019-01-04T11:48:21.512Z,16.99
2019-01-04T11:51:12.645Z,17.13
2019-01-04T11:53:42.510Z,17.26
2019-01-04T11:56:12.570Z,17.36
2019-01-04T11:58:42.334Z,17.51
2019-01-04T12:01:12.176Z,17.65
2019-01-04T12:03:41.890Z,17.68
2019-01-04T12:06:11.563Z,17.63
2019-01-04T12:08:41.316Z,17.75
2019-01-04T12:11:10.760Z,17.83
2019-01-04T12:13:40.432Z,17.94
2019-01-04T12:16:10.735Z,18.07
2019-01-04T12:18:40.396Z,18.24
2019-01-04T12:21:10.183Z,18.29
2019-01-04T12:23:39.300Z,18.37
2019-01-04T12:26:08.662Z,18.44
2019-01-04T12:28:48.586Z,18.49
2019-01-04T12:31:18.329Z,18.57
2019-01-04T12:33:48.533Z,18.68
2019-01-04T12:36:18.264Z,18.72
2019-01-04T12:38:47.759Z,18.85
2019-01-04T12:41:17.481Z,18.98
2019-01-04T12:43:47.894Z,19.04
2019-01-04T12:46:17.905Z,19.10
2019-01-04T12:48:47.824Z,19.19
2019-01-04T12:51:17.587Z,19.27
2019-01-04T12:53:47.466Z,19.36
2019-01-04T12:56:17.096Z,19.49
2019-01-04T12:58:47.508Z,19.57
2019-01-04T13:01:17.323Z,19.60
2019-01-04T13:03:47.001Z,19.66
2019-01-04T13:06:16.771Z,19.74
2019-01-04T13:08:46.206Z,19.76
2019-01-04T13:11:15.829Z,19.83
2019-01-04T13:13:45.445Z,19.89
2019-01-04T13:16:15.309Z,19.96
2019-01-04T13:18:45.465Z,19.94
2019-01-04T13:21:15.057Z,19.96
2019-01-04T13:23:44.804Z,20.06
2019-01-04T13:26:14.522Z,20.03
2019-01-04T13:28:55.269Z,20.00
2019-01-04T13:31:25.115Z,20.03
2019-01-04T13:33:54.784Z,20.11
2019-01-04T13:36:24.540Z,20.20
2019-01-04T13:38:54.303Z,20.29
2019-01-04T13:41:24.038Z,20.24
2019-01-04T13:43:53.735Z,20.28
2019-01-04T13:46:23.538Z,20.26
2019-01-04T13:48:53.392Z,20.33
2019-01-04T13:51:23.089Z,20.45
2019-01-04T13:53:53.002Z,20.53
2019-01-04T13:56:22.735Z,20.57
2019-01-04T13:58:52.408Z,20.62
2019-01-04T14:01:22.221Z,20.60
2019-01-04T14:03:52.075Z,20.61
2019-01-04T14:06:21.869Z,20.57
2019-01-04T14:08:51.706Z,20.65
2019-01-04T14:11:21.419Z,20.68
2019-01-04T14:13:51.121Z,20.73
2019-01-04T14:16:20.873Z,20.73
2019-01-04T14:18:50.380Z,20.78
2019-01-04T14:21:20.236Z,20.84
2019-01-04T14:23:50.112Z,20.87
2019-01-04T14:26:19.871Z,20.89
2019-01-04T14:28:49.516Z,20.90
2019-01-04T14:31:20.297Z,20.89
2019-01-04T14:33:49.994Z,20.92
2019-01-04T14:36:19.873Z,20.94
2019-01-04T14:38:49.724Z,20.95
2019-01-04T14:41:23.297Z,20.98
2019-01-04T14:43:50.648Z,20.99
2019-01-04T14:46:20.516Z,21.02
2019-01-04T14:48:50.230Z,20.96
2019-01-04T14:51:19.994Z,20.97
2019-01-04T14:53:49.879Z,21.01
2019-01-04T14:56:19.581Z,21.05
2019-01-04T14:58:49.420Z,21.11
2019-01-04T15:01:19.320Z,21.12
2019-01-04T15:03:48.955Z,21.10
2019-01-04T15:06:18.673Z,20.99
2019-01-04T15:08:48.413Z,20.92
2019-01-04T15:11:18.068Z,20.89
2019-01-04T15:13:47.704Z,20.92
2019-01-04T15:16:17.554Z,20.88
2019-01-04T15:18:47.217Z,20.81
2019-01-04T15:21:16.844Z,20.84
2019-01-04T15:23:48.871Z,20.82
2019-01-04T15:26:18.756Z,20.79
2019-01-04T15:28:48.397Z,20.85
2019-01-04T15:31:18.305Z,20.86
2019-01-04T15:33:48.034Z,20.80
2019-01-04T15:36:17.657Z,20.82
2019-01-04T15:38:47.523Z,20.78
2019-01-04T15:41:17.314Z,20.71
2019-01-04T15:43:46.936Z,20.71
2019-01-04T15:46:16.855Z,20.71
2019-01-04T15:48:46.511Z,20.64
2019-01-04T15:51:16.263Z,20.62
2019-01-04T15:53:46.150Z,20.60
2019-01-04T15:56:16.017Z,20.53
2019-01-04T15:58:45.840Z,20.48
2019-01-04T16:01:15.722Z,20.46
2019-01-04T16:03:45.233Z,20.37
2019-01-04T16:06:14.914Z,20.31
2019-01-04T16:08:44.813Z,20.26
2019-01-04T16:11:14.599Z,20.20
2019-01-04T16:13:44.212Z,20.12
2019-01-04T16:16:13.984Z,19.97
2019-01-04T16:18:43.530Z,19.86
2019-01-04T16:21:13.268Z,19.81
2019-01-04T16:23:43.144Z,19.74
2019-01-04T16:26:13.040Z,19.68
2019-01-04T16:28:42.865Z,19.61
2019-01-04T16:31:12.730Z,19.53
2019-01-04T16:33:42.395Z,19.35
2019-01-04T16:36:12.084Z,19.27
2019-01-04T16:38:41.957Z,19.11
2019-01-04T16:41:11.656Z,19.00
2019-01-04T16:43:41.072Z,18.87
2019-01-04T16:46:10.699Z,18.76
2019-01-04T16:48:40.679Z,18.60
2019-01-04T16:51:10.276Z,18.45
2019-01-04T16:53:40.095Z,18.30
2019-01-04T16:56:09.825Z,18.15
2019-01-04T16:58:39.602Z,18.03
2019-01-04T17:01:09.431Z,17.88
2019-01-04T17:03:38.789Z,17.77
2019-01-04T17:06:08.620Z,17.68
2019-01-04T17:08:38.456Z,17.59
2019-01-04T17:11:08.069Z,17.52
2019-01-04T17:13:37.910Z,17.42
2019-01-04T17:16:07.625Z,17.34
2019-01-04T17:18:37.257Z,17.25
2019-01-04T17:21:07.071Z,17.18
2019-01-04T17:23:36.742Z,17.10
2019-01-04T17:26:06.506Z,17.00
2019-01-04T17:28:36.853Z,16.90
2019-01-04T17:31:06.567Z,16.78
2019-01-04T17:33:36.403Z,16.62
2019-01-04T17:36:06.175Z,16.50
2019-01-04T17:38:35.801Z,16.34
2019-01-04T17:41:05.462Z,16.18
2019-01-04T17:43:35.184Z,16.07
2019-01-04T17:46:05.139Z,15.92
2019-01-04T17:48:34.805Z,15.82
2019-01-04T17:51:04.342Z,15.72
2019-01-04T17:53:34.031Z,15.67
2019-01-04T17:56:03.192Z,15.59
2019-01-04T17:58:32.553Z,15.51
2019-01-04T18:01:02.223Z,15.41
2019-01-04T18:03:31.712Z,15.25
2019-01-04T18:06:01.012Z,15.12
2019-01-04T18:08:30.424Z,14.99
2019-01-04T18:10:59.602Z,14.84
2019-01-04T18:13:28.943Z,14.71
2019-01-04T18:15:58.392Z,14.57
2019-01-04T18:18:27.660Z,14.40
2019-01-04T18:20:57.082Z,14.25
2019-01-04T18:23:26.559Z,14.12
2019-01-04T18:25:56.073Z,13.97
2019-01-04T18:28:25.503Z,13.85
2019-01-04T18:30:55.164Z,13.76
2019-01-04T18:33:24.533Z,13.68
2019-01-04T18:35:53.772Z,13.58
2019-01-04T18:38:23.253Z,13.55
2019-01-04T18:40:52.582Z,13.43
2019-01-04T18:43:21.692Z,13.33
2019-01-04T18:45:51.376Z,13.19
2019-01-04T18:48:20.524Z,13.01
2019-01-04T18:50:51.053Z,12.88
2019-01-04T18:53:20.622Z,12.76
2019-01-04T18:55:49.712Z,12.65
2019-01-04T18:58:19.462Z,12.57
2019-01-04T19:00:48.843Z,12.51
2019-01-04T19:03:17.984Z,12.43
2019-01-04T19:05:47.023Z,12.35
2019-01-04T19:08:16.456Z,12.29
2019-01-04T19:10:45.703Z,12.24
2019-01-04T19:13:15.022Z,12.14
2019-01-04T19:15:44.414Z,12.05
2019-01-04T19:18:13.643Z,11.97
2019-01-04T19:20:42.854Z,11.90
2019-01-04T19:23:12.042Z,11.80
2019-01-04T19:25:41.472Z,11.69
2019-01-04T19:28:10.732Z,11.62
2019-01-04T19:30:40.322Z,11.57
2019-01-04T19:33:09.912Z,11.51
2019-01-04T19:35:39.452Z,11.48
2019-01-04T19:38:08.896Z,11.43
2019-01-04T19:40:38.391Z,11.38
2019-01-04T19:43:07.734Z,11.32
2019-01-04T19:45:37.503Z,11.24
2019-01-04T19:48:06.837Z,11.17
2019-01-04T19:50:36.313Z,11.12
2019-01-04T19:53:05.787Z,11.05
2019-01-04T19:55:34.903Z,10.98
2019-01-04T19:58:04.117Z,10.91
2019-01-04T20:00:33.145Z,10.85
2019-01-04T20:03:02.076Z,10.78
2019-01-04T20:06:13.721Z,10.70
2019-01-04T20:09:02.548Z,10.62
2019-01-04T20:12:18.105Z,10.54
2019-01-04T20:15:00.944Z,10.48
2019-01-04T20:17:32.346Z,10.41
2019-01-04T20:20:05.892Z,10.31
2019-01-04T20:22:43.076Z,10.22
2019-01-04T20:25:30.003Z,10.17
2019-01-04T20:28:03.583Z,10.12
2019-01-04T20:30:37.184Z,10.06
2019-01-04T20:33:23.946Z,9.98
2019-01-04T20:36:12.293Z,9.92
2019-01-04T20:38:52.448Z,9.87
2019-01-04T20:41:39.434Z,9.83
2019-01-04T20:44:10.444Z,9.78
2019-01-04T20:46:50.295Z,9.72
2019-01-04T20:49:30.784Z,9.71
2019-01-04T20:52:17.534Z,9.61
2019-01-04T20:55:04.594Z,9.48
2019-01-04T20:57:44.224Z,9.35
2019-01-04T21:00:14.905Z,9.24
2019-01-04T21:03:02.323Z,9.17
2019-01-04T21:05:36.595Z,9.15
2019-01-04T21:08:10.355Z,9.13
2019-01-04T21:10:41.254Z,9.14
2019-01-04T21:13:28.284Z,9.12
2019-01-04T21:16:08.504Z,9.08
2019-01-04T21:18:48.237Z,9.00
2019-01-04T21:21:21.903Z,8.94
2019-01-04T21:24:02.058Z,8.89
2019-01-04T21:26:33.213Z,8.85
2019-01-04T21:29:14.275Z,8.78
2019-01-04T21:31:50.914Z,8.71
2019-01-04T21:34:24.384Z,8.65
2019-01-04T21:36:59.103Z,8.66
2019-01-04T21:39:46.303Z,8.68
2019-01-04T21:42:17.375Z,8.72
2019-01-04T21:45:04.004Z,8.73
2019-01-04T21:47:51.624Z,8.68
2019-01-04T21:50:34.865Z,8.65
2019-01-04T21:53:11.037Z,8.60
2019-01-04T21:55:51.824Z,8.53
2019-01-04T21:58:32.510Z,8.43
2019-01-04T22:01:03.748Z,8.33
2019-01-04T22:03:51.432Z,8.22
2019-01-04T22:06:28.972Z,8.19
2019-01-04T22:09:00.171Z,8.21
2019-01-04T22:11:48.267Z,8.21
2019-01-04T22:14:19.144Z,8.22
2019-01-04T22:17:08.516Z,8.22
2019-01-04T22:19:56.531Z,8.23
2019-01-04T22:22:39.658Z,8.19
2019-01-04T22:25:26.843Z,8.11
2019-01-04T22:28:04.423Z,8.04
2019-01-04T22:30:52.417Z,7.97
2019-01-04T22:33:30.765Z,7.91
2019-01-04T22:36:01.794Z,7.89
2019-01-04T22:38:42.205Z,7.86
2019-01-04T22:41:26.186Z,7.84
2019-01-04T22:43:57.555Z,7.80
2019-01-04T22:46:45.751Z,7.76
2019-01-04T22:49:34.254Z,7.70
2019-01-04T22:52:14.553Z,7.65
2019-01-04T22:55:02.672Z,7.58
2019-01-04T22:57:50.682Z,7.55
2019-01-04T23:00:46.010Z,7.57
2019-01-04T23:03:34.351Z,7.53
2019-01-04T23:06:21.002Z,7.49
2019-01-04T23:08:58.181Z,7.44
2019-01-04T23:11:29.430Z,7.40
2019-01-04T23:14:17.643Z,7.33
2019-01-04T23:16:48.785Z,7.27
2019-01-04T23:19:37.020Z,7.27
2019-01-04T23:22:27.795Z,7.27
2019-01-04T23:25:05.273Z,7.22
2019-01-04T23:27:54.179Z,7.09
2019-01-04T23:30:25.548Z,7.00
2019-01-04T23:32:56.722Z,6.97
2019-01-04T23:35:27.942Z,6.94
2019-01-04T23:38:16.279Z,6.90
2019-01-04T23:40:56.451Z,6.87
2019-01-04T23:43:33.833Z,6.78
2019-01-04T23:46:20.484Z,6.74
2019-01-04T23:48:51.797Z,6.70
2019-01-04T23:51:30.009Z,6.65
2019-01-04T23:54:07.993Z,6.61
2019-01-04T23:56:56.558Z,6.61
2019-01-04T23:59:34.421Z,6.59
